sensor_id;sensor_type;location;lat;lon;timestamp;pressure;altitude;pressure_sealevel;temperature;humidity
4598;BME280;62772;48.646;8.906;2023-02-02T00:04:35;96909.38;;;2.72;100.00
4598;BME280;62772;48.646;8.906;2023-02-02T00:09:36;96899.25;;;2.86;100.00
4598;BME280;62772;48.646;8.906;2023-02-02T00:14:36;96891.28;;;2.81;100.00
4598;BME280;62772;48.646;8.906;2023-02-02T00:19:37;96886.75;;;2.76;100.00
4598;BME280;62772;48.646;8.906;2023-02-02T00:24:37;96886.88;;;2.86;100.00
4598;BME280;62772;48.646;8.906;2023-02-02T00:29:38;96897.59;;;2.80;100.00
4598;BME280;62772;48.646;8.906;2023-02-02T00:34:39;96903.50;;;2.87;100.00
4598;BME280;62772;48.646;8.906;2023-02-02T00:39:39;96899.31;;;2.91;100.00
4598;BME280;62772;48.646;8.906;2023-02-02T00:44:40;96893.78;;;2.93;100.00
4598;BME280;62772;48.646;8.906;2023-02-02T00:49:59;96881.03;;;2.84;100.00
4598;BME280;62772;48.646;8.906;2023-02-02T00:54:59;96887.91;;;2.85;100.00
4598;BME280;62772;48.646;8.906;2023-02-02T01:00:00;96890.06;;;2.88;100.00
4598;BME280;62772;48.646;8.906;2023-02-02T01:05:01;96890.13;;;2.94;100.00
4598;BME280;62772;48.646;8.906;2023-02-02T01:10:01;96886.31;;;2.84;100.00
4598;BME280;62772;48.646;8.906;2023-02-02T01:15:02;96891.59;;;2.84;100.00
4598;BME280;62772;48.646;8.906;2023-02-02T01:20:06;96904.59;;;2.69;100.00
4598;BME280;62772;48.646;8.906;2023-02-02T01:25:07;96907.91;;;2.81;100.00
4598;BME280;62772;48.646;8.906;2023-02-02T01:30:08;96904.28;;;2.87;100.00
4598;BME280;62772;48.646;8.906;2023-02-02T01:35:11;96915.91;;;2.86;100.00
4598;BME280;62772;48.646;8.906;2023-02-02T01:40:12;96908.47;;;2.83;100.00
4598;BME280;62772;48.646;8.906;2023-02-02T01:45:20;96899.44;;;2.79;100.00
4598;BME280;62772;48.646;8.906;2023-02-02T01:50:30;96908.09;;;2.75;100.00
4598;BME280;62772;48.646;8.906;2023-02-02T01:55:34;96896.31;;;2.82;100.00
4598;BME280;62772;48.646;8.906;2023-02-02T02:00:39;96901.94;;;2.91;100.00
4598;BME280;62772;48.646;8.906;2023-02-02T02:05:44;96912.53;;;2.69;100.00
4598;BME280;62772;48.646;8.906;2023-02-02T02:10:46;96897.28;;;2.76;100.00
4598;BME280;62772;48.646;8.906;2023-02-02T02:15:56;96903.78;;;2.68;100.00
4598;BME280;62772;48.646;8.906;2023-02-02T02:21:37;96911.13;;;2.83;100.00
4598;BME280;62772;48.646;8.906;2023-02-02T02:27:41;96908.09;;;2.97;100.00
4598;BME280;62772;48.646;8.906;2023-02-02T02:32:49;96897.09;;;2.83;100.00
4598;BME280;62772;48.646;8.906;2023-02-02T02:43:01;96899.50;;;2.84;100.00
4598;BME280;62772;48.646;8.906;2023-02-02T02:48:04;96900.47;;;2.78;100.00
4598;BME280;62772;48.646;8.906;2023-02-02T02:53:10;96895.94;;;2.73;100.00
4598;BME280;62772;48.646;8.906;2023-02-02T02:58:12;96915.53;;;2.78;100.00
4598;BME280;62772;48.646;8.906;2023-02-02T03:08:59;96900.66;;;2.71;100.00
4598;BME280;62772;48.646;8.906;2023-02-02T03:14:01;96910.00;;;2.79;100.00
4598;BME280;62772;48.646;8.906;2023-02-02T03:19:03;96910.09;;;2.89;100.00
4598;BME280;62772;48.646;8.906;2023-02-02T03:24:04;96908.97;;;2.80;100.00
4598;BME280;62772;48.646;8.906;2023-02-02T03:29:04;96910.44;;;2.71;100.00
4598;BME280;62772;48.646;8.906;2023-02-02T03:34:05;96912.28;;;2.70;100.00
4598;BME280;62772;48.646;8.906;2023-02-02T03:39:06;96918.94;;;2.78;100.00
4598;BME280;62772;48.646;8.906;2023-02-02T03:44:06;96920.59;;;2.84;100.00
4598;BME280;62772;48.646;8.906;2023-02-02T03:49:07;96913.13;;;2.76;100.00
4598;BME280;62772;48.646;8.906;2023-02-02T03:54:07;96918.16;;;2.78;100.00
4598;BME280;62772;48.646;8.906;2023-02-02T03:59:08;96920.59;;;2.84;100.00
4598;BME280;62772;48.646;8.906;2023-02-02T04:04:08;96910.97;;;2.73;100.00
4598;BME280;62772;48.646;8.906;2023-02-02T04:09:08;96922.94;;;2.81;100.00
4598;BME280;62772;48.646;8.906;2023-02-02T04:14:09;96931.59;;;2.76;100.00
4598;BME280;62772;48.646;8.906;2023-02-02T04:19:09;96913.06;;;2.71;100.00
4598;BME280;62772;48.646;8.906;2023-02-02T04:24:12;96909.28;;;2.84;100.00
4598;BME280;62772;48.646;8.906;2023-02-02T04:29:13;96907.38;;;2.79;100.00
4598;BME280;62772;48.646;8.906;2023-02-02T04:34:14;96903.31;;;2.71;100.00
4598;BME280;62772;48.646;8.906;2023-02-02T04:39:14;96919.81;;;2.84;100.00
4598;BME280;62772;48.646;8.906;2023-02-02T04:44:15;96926.69;;;2.85;100.00
4598;BME280;62772;48.646;8.906;2023-02-02T04:49:15;96950.81;;;2.94;100.00
4598;BME280;62772;48.646;8.906;2023-02-02T04:54:16;96959.94;;;2.86;100.00
4598;BME280;62772;48.646;8.906;2023-02-02T04:59:17;96959.69;;;2.87;100.00
4598;BME280;62772;48.646;8.906;2023-02-02T05:04:17;96952.66;;;2.93;100.00
4598;BME280;62772;48.646;8.906;2023-02-02T05:09:18;96949.63;;;2.84;100.00
4598;BME280;62772;48.646;8.906;2023-02-02T05:14:18;96963.75;;;2.95;100.00
4598;BME280;62772;48.646;8.906;2023-02-02T05:19:19;96968.72;;;2.92;100.00
4598;BME280;62772;48.646;8.906;2023-02-02T05:24:19;96970.00;;;2.89;100.00
4598;BME280;62772;48.646;8.906;2023-02-02T05:29:20;96978.78;;;2.95;100.00
4598;BME280;62772;48.646;8.906;2023-02-02T05:34:21;96980.72;;;2.99;100.00
4598;BME280;62772;48.646;8.906;2023-02-02T05:39:21;96975.09;;;2.96;100.00
4598;BME280;62772;48.646;8.906;2023-02-02T05:44:22;97000.03;;;3.05;100.00
4598;BME280;62772;48.646;8.906;2023-02-02T05:49:22;97005.06;;;3.06;100.00
4598;BME280;62772;48.646;8.906;2023-02-02T05:54:23;96996.53;;;2.99;100.00
4598;BME280;62772;48.646;8.906;2023-02-02T05:59:24;97000.91;;;3.11;100.00
4598;BME280;62772;48.646;8.906;2023-02-02T06:04:24;96994.03;;;3.09;100.00
4598;BME280;62772;48.646;8.906;2023-02-02T06:09:25;96998.75;;;3.07;100.00
4598;BME280;62772;48.646;8.906;2023-02-02T06:14:25;96998.56;;;3.14;100.00
4598;BME280;62772;48.646;8.906;2023-02-02T06:19:26;97013.47;;;3.03;100.00
4598;BME280;62772;48.646;8.906;2023-02-02T06:24:26;97011.88;;;3.02;100.00
4598;BME280;62772;48.646;8.906;2023-02-02T06:29:26;97006.47;;;2.92;100.00
4598;BME280;62772;48.646;8.906;2023-02-02T06:34:27;97021.25;;;2.93;100.00
4598;BME280;62772;48.646;8.906;2023-02-02T06:39:27;97023.00;;;2.87;100.00
4598;BME280;62772;48.646;8.906;2023-02-02T06:44:28;97024.31;;;2.85;100.00
4598;BME280;62772;48.646;8.906;2023-02-02T06:49:28;97030.22;;;2.75;100.00
4598;BME280;62772;48.646;8.906;2023-02-02T06:54:29;97031.09;;;2.81;100.00
4598;BME280;62772;48.646;8.906;2023-02-02T06:59:29;97027.50;;;2.70;100.00
4598;BME280;62772;48.646;8.906;2023-02-02T07:04:30;97028.56;;;2.69;100.00
4598;BME280;62772;48.646;8.906;2023-02-02T07:09:32;97036.38;;;2.64;100.00
4598;BME280;62772;48.646;8.906;2023-02-02T07:14:32;97035.41;;;2.87;100.00
4598;BME280;62772;48.646;8.906;2023-02-02T07:19:33;97020.25;;;2.77;100.00
4598;BME280;62772;48.646;8.906;2023-02-02T07:24:33;97019.88;;;2.90;100.00
4598;BME280;62772;48.646;8.906;2023-02-02T07:29:34;97037.03;;;2.88;100.00
4598;BME280;62772;48.646;8.906;2023-02-02T07:34:38;97032.59;;;2.94;100.00
4598;BME280;62772;48.646;8.906;2023-02-02T07:39:38;97033.31;;;2.89;100.00
4598;BME280;62772;48.646;8.906;2023-02-02T07:44:39;97038.44;;;2.96;100.00
4598;BME280;62772;48.646;8.906;2023-02-02T07:49:39;97046.75;;;3.04;100.00
4598;BME280;62772;48.646;8.906;2023-02-02T07:54:40;97041.69;;;3.03;100.00
4598;BME280;62772;48.646;8.906;2023-02-02T07:59:41;97044.81;;;3.00;100.00
4598;BME280;62772;48.646;8.906;2023-02-02T08:04:41;97049.84;;;3.18;100.00
4598;BME280;62772;48.646;8.906;2023-02-02T08:09:45;97039.19;;;3.13;100.00
4598;BME280;62772;48.646;8.906;2023-02-02T08:14:46;97037.13;;;3.15;100.00
4598;BME280;62772;48.646;8.906;2023-02-02T08:19:46;97038.59;;;3.28;100.00
4598;BME280;62772;48.646;8.906;2023-02-02T08:24:47;97026.34;;;3.39;100.00
4598;BME280;62772;48.646;8.906;2023-02-02T08:29:47;97034.34;;;3.27;100.00
4598;BME280;62772;48.646;8.906;2023-02-02T08:34:48;97031.00;;;3.32;100.00
4598;BME280;62772;48.646;8.906;2023-02-02T08:39:50;97035.28;;;3.38;100.00
4598;BME280;62772;48.646;8.906;2023-02-02T08:44:51;97047.56;;;3.49;100.00
4598;BME280;62772;48.646;8.906;2023-02-02T08:49:51;97080.53;;;3.47;100.00
4598;BME280;62772;48.646;8.906;2023-02-02T08:54:52;97081.97;;;3.54;100.00
4598;BME280;62772;48.646;8.906;2023-02-02T08:59:52;97089.53;;;3.45;100.00
4598;BME280;62772;48.646;8.906;2023-02-02T09:04:53;97101.66;;;3.47;100.00
4598;BME280;62772;48.646;8.906;2023-02-02T09:09:53;97120.16;;;3.47;100.00
4598;BME280;62772;48.646;8.906;2023-02-02T09:14:57;97127.28;;;3.46;100.00
4598;BME280;62772;48.646;8.906;2023-02-02T09:19:57;97125.38;;;3.41;100.00
4598;BME280;62772;48.646;8.906;2023-02-02T09:24:58;97115.69;;;3.47;100.00
4598;BME280;62772;48.646;8.906;2023-02-02T09:29:58;97119.66;;;3.50;100.00
4598;BME280;62772;48.646;8.906;2023-02-02T09:34:59;97107.09;;;3.57;100.00
4598;BME280;62772;48.646;8.906;2023-02-02T09:39:59;97130.31;;;3.55;100.00
4598;BME280;62772;48.646;8.906;2023-02-02T09:45:15;97134.28;;;3.57;100.00
4598;BME280;62772;48.646;8.906;2023-02-02T09:55:35;97149.00;;;3.31;100.00
4598;BME280;62772;48.646;8.906;2023-02-02T10:00:43;97148.72;;;3.50;100.00
4598;BME280;62772;48.646;8.906;2023-02-02T10:05:53;97146.25;;;3.43;100.00
4598;BME280;62772;48.646;8.906;2023-02-02T10:10:55;97151.34;;;3.50;100.00
4598;BME280;62772;48.646;8.906;2023-02-02T10:16:06;97154.41;;;3.41;100.00
4598;BME280;62772;48.646;8.906;2023-02-02T10:21:14;97147.19;;;3.54;100.00
4598;BME280;62772;48.646;8.906;2023-02-02T10:26:19;97144.38;;;3.60;100.00
4598;BME280;62772;48.646;8.906;2023-02-02T10:42:27;97151.59;;;3.48;100.00
4598;BME280;62772;48.646;8.906;2023-02-02T10:47:32;97157.59;;;3.43;100.00
4598;BME280;62772;48.646;8.906;2023-02-02T10:52:33;97161.25;;;3.37;100.00
4598;BME280;62772;48.646;8.906;2023-02-02T11:02:50;97158.06;;;3.57;100.00
4598;BME280;62772;48.646;8.906;2023-02-02T11:07:52;97162.09;;;3.43;100.00
4598;BME280;62772;48.646;8.906;2023-02-02T11:12:55;97169.59;;;3.51;100.00
4598;BME280;62772;48.646;8.906;2023-02-02T11:18:32;97169.78;;;3.44;100.00
4598;BME280;62772;48.646;8.906;2023-02-02T11:23:32;97156.84;;;3.65;100.00
4598;BME280;62772;48.646;8.906;2023-02-02T11:28:34;97149.63;;;3.38;100.00
4598;BME280;62772;48.646;8.906;2023-02-02T11:33:35;97160.25;;;3.43;100.00
4598;BME280;62772;48.646;8.906;2023-02-02T11:38:35;97161.69;;;3.51;100.00
4598;BME280;62772;48.646;8.906;2023-02-02T11:43:54;97159.00;;;3.68;100.00
4598;BME280;62772;48.646;8.906;2023-02-02T11:49:05;97161.34;;;3.65;100.00
4598;BME280;62772;48.646;8.906;2023-02-02T11:54:17;97169.50;;;3.63;100.00
4598;BME280;62772;48.646;8.906;2023-02-02T12:04:27;97154.47;;;3.86;100.00
4598;BME280;62772;48.646;8.906;2023-02-02T12:09:27;97147.28;;;3.81;100.00
4598;BME280;62772;48.646;8.906;2023-02-02T12:14:35;97139.25;;;3.71;100.00
4598;BME280;62772;48.646;8.906;2023-02-02T12:30:26;97140.47;;;3.85;100.00
4598;BME280;62772;48.646;8.906;2023-02-02T13:01:51;97126.81;;;3.93;100.00
4598;BME280;62772;48.646;8.906;2023-02-02T13:12:10;97128.72;;;3.98;100.00
4598;BME280;62772;48.646;8.906;2023-02-02T13:17:17;97136.41;;;3.77;100.00
4598;BME280;62772;48.646;8.906;2023-02-02T13:22:27;97133.44;;;3.96;100.00
4598;BME280;62772;48.646;8.906;2023-02-02T13:27:29;97148.41;;;3.85;100.00
4598;BME280;62772;48.646;8.906;2023-02-02T13:32:33;97155.66;;;3.95;100.00
4598;BME280;62772;48.646;8.906;2023-02-02T13:37:49;97159.28;;;3.89;100.00
4598;BME280;62772;48.646;8.906;2023-02-02T14:03:59;97170.56;;;3.84;100.00
4598;BME280;62772;48.646;8.906;2023-02-02T14:09:02;97170.94;;;3.93;100.00
4598;BME280;62772;48.646;8.906;2023-02-02T14:14:15;97174.94;;;3.95;100.00
4598;BME280;62772;48.646;8.906;2023-02-02T14:29:40;97197.06;;;4.11;100.00
4598;BME280;62772;48.646;8.906;2023-02-02T14:40:31;97199.59;;;4.23;100.00
4598;BME280;62772;48.646;8.906;2023-02-02T14:45:42;97201.88;;;4.14;100.00
4598;BME280;62772;48.646;8.906;2023-02-02T15:06:38;97202.34;;;4.11;100.00
4598;BME280;62772;48.646;8.906;2023-02-02T15:17:07;97218.91;;;4.02;100.00
4598;BME280;62772;48.646;8.906;2023-02-02T15:22:36;97213.06;;;3.99;100.00
4598;BME280;62772;48.646;8.906;2023-02-02T15:27:45;97207.84;;;4.05;100.00
4598;BME280;62772;48.646;8.906;2023-02-02T15:32:50;97220.50;;;4.03;100.00
4598;BME280;62772;48.646;8.906;2023-02-02T15:37:59;97228.25;;;4.09;100.00
4598;BME280;62772;48.646;8.906;2023-02-02T15:43:02;97226.69;;;4.13;100.00
4598;BME280;62772;48.646;8.906;2023-02-02T15:48:13;97229.91;;;3.93;100.00
4598;BME280;62772;48.646;8.906;2023-02-02T15:53:44;97225.88;;;3.91;100.00
4598;BME280;62772;48.646;8.906;2023-02-02T15:58:48;97237.19;;;3.86;100.00
4598;BME280;62772;48.646;8.906;2023-02-02T16:09:01;97259.53;;;3.78;100.00
4598;BME280;62772;48.646;8.906;2023-02-02T16:14:11;97269.13;;;3.85;100.00
4598;BME280;62772;48.646;8.906;2023-02-02T16:19:19;97275.88;;;3.75;100.00
4598;BME280;62772;48.646;8.906;2023-02-02T16:24:29;97279.38;;;3.98;100.00
4598;BME280;62772;48.646;8.906;2023-02-02T16:29:31;97301.19;;;3.88;100.00
4598;BME280;62772;48.646;8.906;2023-02-02T16:39:40;97324.72;;;3.90;100.00
4598;BME280;62772;48.646;8.906;2023-02-02T16:44:42;97324.72;;;3.90;100.00
4598;BME280;62772;48.646;8.906;2023-02-02T16:49:45;97346.59;;;3.85;100.00
4598;BME280;62772;48.646;8.906;2023-02-02T16:54:55;97364.75;;;3.81;100.00
4598;BME280;62772;48.646;8.906;2023-02-02T16:59:59;97366.69;;;3.86;100.00
4598;BME280;62772;48.646;8.906;2023-02-02T17:05:14;97383.13;;;3.88;100.00
4598;BME280;62772;48.646;8.906;2023-02-02T17:20:18;97422.25;;;3.74;100.00
4598;BME280;62772;48.646;8.906;2023-02-02T17:25:34;97423.63;;;3.94;100.00
4598;BME280;62772;48.646;8.906;2023-02-02T17:30:35;97422.16;;;3.86;100.00
4598;BME280;62772;48.646;8.906;2023-02-02T17:35:38;97420.72;;;3.78;100.00
4598;BME280;62772;48.646;8.906;2023-02-02T17:40:38;97421.09;;;3.70;100.00
4598;BME280;62772;48.646;8.906;2023-02-02T17:45:39;97427.94;;;3.66;100.00
4598;BME280;62772;48.646;8.906;2023-02-02T17:50:40;97440.00;;;3.62;100.00
4598;BME280;62772;48.646;8.906;2023-02-02T17:55:42;97435.38;;;3.69;100.00
4598;BME280;62772;48.646;8.906;2023-02-02T18:00:45;97438.81;;;3.70;100.00
4598;BME280;62772;48.646;8.906;2023-02-02T18:05:47;97440.34;;;3.83;100.00
4598;BME280;62772;48.646;8.906;2023-02-02T18:10:47;97447.53;;;3.70;100.00
4598;BME280;62772;48.646;8.906;2023-02-02T18:15:49;97462.69;;;3.75;100.00
4598;BME280;62772;48.646;8.906;2023-02-02T18:20:49;97462.91;;;3.73;100.00
4598;BME280;62772;48.646;8.906;2023-02-02T18:25:50;97470.56;;;3.87;100.00
4598;BME280;62772;48.646;8.906;2023-02-02T18:30:52;97469.34;;;3.77;100.00
4598;BME280;62772;48.646;8.906;2023-02-02T18:35:52;97471.63;;;3.74;100.00
4598;BME280;62772;48.646;8.906;2023-02-02T18:40:56;97464.91;;;3.66;100.00
4598;BME280;62772;48.646;8.906;2023-02-02T18:46:01;97453.50;;;3.49;100.00
4598;BME280;62772;48.646;8.906;2023-02-02T18:51:14;97452.69;;;3.48;100.00
4598;BME280;62772;48.646;8.906;2023-02-02T18:56:16;97453.50;;;3.49;100.00
4598;BME280;62772;48.646;8.906;2023-02-02T19:01:18;97463.16;;;3.43;100.00
4598;BME280;62772;48.646;8.906;2023-02-02T19:06:21;97452.72;;;3.65;100.00
4598;BME280;62772;48.646;8.906;2023-02-02T19:11:42;97472.41;;;3.57;100.00
4598;BME280;62772;48.646;8.906;2023-02-02T19:16:46;97466.00;;;3.13;100.00
4598;BME280;62772;48.646;8.906;2023-02-02T19:21:47;97470.03;;;3.15;100.00
4598;BME280;62772;48.646;8.906;2023-02-02T19:26:48;97466.78;;;3.25;100.00
4598;BME280;62772;48.646;8.906;2023-02-02T19:31:57;97456.03;;;3.03;100.00
4598;BME280;62772;48.646;8.906;2023-02-02T19:37:21;97462.34;;;3.02;100.00
4598;BME280;62772;48.646;8.906;2023-02-02T19:42:23;97461.91;;;2.93;100.00
4598;BME280;62772;48.646;8.906;2023-02-02T19:47:30;97461.72;;;3.23;100.00
4598;BME280;62772;48.646;8.906;2023-02-02T19:52:31;97476.63;;;3.30;100.00
4598;BME280;62772;48.646;8.906;2023-02-02T19:57:34;97481.50;;;3.09;100.00
4598;BME280;62772;48.646;8.906;2023-02-02T20:08:40;97490.94;;;3.45;100.00
4598;BME280;62772;48.646;8.906;2023-02-02T20:13:44;97496.41;;;3.03;100.00
4598;BME280;62772;48.646;8.906;2023-02-02T20:18:50;97490.78;;;3.12;100.00
4598;BME280;62772;48.646;8.906;2023-02-02T20:23:53;97481.03;;;3.00;100.00
4598;BME280;62772;48.646;8.906;2023-02-02T20:28:58;97486.66;;;3.16;100.00
4598;BME280;62772;48.646;8.906;2023-02-02T20:33:59;97482.19;;;3.04;100.00
4598;BME280;62772;48.646;8.906;2023-02-02T20:44:14;97455.88;;;2.69;100.00
4598;BME280;62772;48.646;8.906;2023-02-02T20:49:15;97454.13;;;2.86;100.00
4598;BME280;62772;48.646;8.906;2023-02-02T20:54:16;97445.41;;;2.62;100.00
4598;BME280;62772;48.646;8.906;2023-02-02T20:59:17;97454.03;;;2.69;100.00
4598;BME280;62772;48.646;8.906;2023-02-02T21:04:20;97465.47;;;2.40;100.00
4598;BME280;62772;48.646;8.906;2023-02-02T21:09:20;97464.13;;;2.37;100.00
4598;BME280;62772;48.646;8.906;2023-02-02T21:14:25;97465.28;;;2.53;100.00
4598;BME280;62772;48.646;8.906;2023-02-02T21:19:26;97461.50;;;2.37;100.00
4598;BME280;62772;48.646;8.906;2023-02-02T21:24:28;97470.75;;;2.63;100.00
4598;BME280;62772;48.646;8.906;2023-02-02T21:29:30;97468.34;;;2.62;100.00
4598;BME280;62772;48.646;8.906;2023-02-02T21:34:31;97465.94;;;2.72;100.00
4598;BME280;62772;48.646;8.906;2023-02-02T21:39:34;97476.38;;;2.67;100.00
4598;BME280;62772;48.646;8.906;2023-02-02T21:44:38;97473.97;;;2.65;100.00
4598;BME280;62772;48.646;8.906;2023-02-02T21:49:38;97473.06;;;2.83;100.00
4598;BME280;62772;48.646;8.906;2023-02-02T21:54:40;97474.53;;;2.79;100.00
4598;BME280;62772;48.646;8.906;2023-02-02T21:59:40;97483.25;;;2.92;100.00
4598;BME280;62772;48.646;8.906;2023-02-02T22:04:40;97484.28;;;2.90;100.00
4598;BME280;62772;48.646;8.906;2023-02-02T22:09:42;97491.16;;;2.92;100.00
4598;BME280;62772;48.646;8.906;2023-02-02T22:14:44;97492.66;;;2.99;100.00
4598;BME280;62772;48.646;8.906;2023-02-02T22:19:45;97494.38;;;2.94;100.00
4598;BME280;62772;48.646;8.906;2023-02-02T22:24:57;97493.91;;;2.97;100.00
4598;BME280;62772;48.646;8.906;2023-02-02T22:30:02;97491.50;;;2.95;100.00
4598;BME280;62772;48.646;8.906;2023-02-02T22:35:10;97492.88;;;2.98;100.00
4598;BME280;62772;48.646;8.906;2023-02-02T22:40:11;97494.84;;;2.79;100.00
4598;BME280;62772;48.646;8.906;2023-02-02T22:45:11;97491.97;;;2.68;100.00
4598;BME280;62772;48.646;8.906;2023-02-02T22:50:16;97492.78;;;2.81;100.00
4598;BME280;62772;48.646;8.906;2023-02-02T22:55:18;97498.50;;;2.89;100.00
4598;BME280;62772;48.646;8.906;2023-02-02T23:00:23;97498.41;;;2.72;100.00
4598;BME280;62772;48.646;8.906;2023-02-02T23:05:25;97482.78;;;2.59;100.00
4598;BME280;62772;48.646;8.906;2023-02-02T23:10:26;97492.19;;;2.90;100.00
4598;BME280;62772;48.646;8.906;2023-02-02T23:15:28;97485.22;;;2.72;100.00
4598;BME280;62772;48.646;8.906;2023-02-02T23:20:30;97490.94;;;2.69;100.00
4598;BME280;62772;48.646;8.906;2023-02-02T23:25:30;97507.81;;;2.80;100.00
4598;BME280;62772;48.646;8.906;2023-02-02T23:30:31;97512.50;;;2.90;100.00
4598;BME280;62772;48.646;8.906;2023-02-02T23:35:31;97530.75;;;2.92;100.00
4598;BME280;62772;48.646;8.906;2023-02-02T23:40:31;97522.94;;;2.73;100.00
4598;BME280;62772;48.646;8.906;2023-02-02T23:45:32;97531.66;;;2.73;100.00
4598;BME280;62772;48.646;8.906;2023-02-02T23:50:34;97519.63;;;2.66;100.00
4598;BME280;62772;48.646;8.906;2023-02-02T23:55:40;97536.00;;;2.56;100.00
